Overview Statistics Trail Chart Weather Telemetry Raw packets
 

This is the latest recevied weather packets stored in our database for station/object GAPWX. If no packets are shown the sender has not sent any weather packets the latest 10 day(s).

<< 39 40 41 42 43 >>
Time Temp. Humidity Pressure Rain* Wind** Luminosity Snow
1787766034 27.22° C 29% 1022.4 hPa 0 mm - - -
1787763925 26.67° C 31% 1022.4 hPa 0 mm - - -
1787762417 24.44° C 36% 1022.3 hPa 0 mm - - -
1787762117 24.44° C 38% 1022.3 hPa 0 mm - - -
1787761212 22.22° C 41% 1022.3 hPa 0 mm - - -
1787760911 21.67° C 43% 1022.2 hPa 0 mm - - -
1787759405 16.67° C 50% 1022.2 hPa 0 mm - - -
1787759103 16.11° C 52% 1022.4 hPa 0 mm - - -
1787758801 15° C 52% 1022.3 hPa 0 mm - - -
1787758198 14.44° C 53% 1022.3 hPa 0 mm - - -
1787757596 13.89° C 53% 1022.3 hPa 0 mm - - -
1787757295 13.33° C 53% 1022.3 hPa 0 mm - - -
1787753078 11.67° C 51% 1022 hPa 0 mm - - -
1787752774 11.67° C 51% 1022 hPa 0 mm - - -
1787752474 11.67° C 50% 1021.9 hPa 0 mm - - -
1787752171 11.67° C 50% 1022 hPa 0 mm - - -
1787751871 11.67° C 50% 1022 hPa 0 mm - - -
1787751569 11.67° C 49% 1021.9 hPa 0 mm - - -
1787750966 11.67° C 49% 1021.9 hPa 0 mm - - -
1787750363 12.22° C 49% 1021.8 hPa 0 mm - - -
1787749761 12.22° C 49% 1021.9 hPa 0 mm - - -
1787749460 12.22° C 49% 1021.8 hPa 0 mm - - -
1787749159 12.22° C 49% 1021.8 hPa 0 mm - - -
1787748555 12.22° C 49% 1021.8 hPa 0 mm - - -
1787747350 12.22° C 48% 1021.8 hPa 0 mm - - -

* Rain since midnight (hover to see other rain measurements)
** Current wind speed in m/s (hover to see current wind gust speed)